To NAV CANADA Home Page Login to a new session Search on AWWS site Feedback and Comments Disclaimer Vers la page française équivalente Tips FAQ What's new on the site To the Forecasts and Observations / NOTAM section To "File a Flight Plan" website Publications and other links Update of the User's profile FIC Telephone Numbers My Weather Data Folder Route Weather Data Regional Weather Data Local Weather Data To the Forecasts and Observations / NOTAM section
Request Generated 12/04/2016 at 22:21:17 UTC . Weather information available at that time is displayed.

METAR/TAF

DEASE LAKE/BC    (show WxCam)

SPECI CYDL 042209Z AUTO 01004KT 310V100 6SM -SN OVC024 M08/M10 A2992
RMK SLP173=
SPECI CYDL 042205Z AUTO 02004KT 290V100 5SM -SN OVC024 M08/M10 A2992
RMK SLP173=
METAR CYDL 042200Z AUTO VRB06KT 7SM -SN OVC024 M08/M10 A2992 RMK
SLP172=
SPECI CYDL 042142Z AUTO VRB05KT 6SM -SN SCT017 OVC022 M07/M09 A2991
RMK SLP170=
SPECI CYDL 042139Z AUTO VRB04KT 6SM -SN OVC019 M07/M09 A2991 RMK
SLP170=
SPECI CYDL 042138Z AUTO VRB06KT 4SM -SN OVC019 M07/M09 A2991 RMK
SLP170=
SPECI CYDL 042136Z AUTO VRB05KT 2 1/2SM -SN OVC019 M08/M09 A2991 RMK
SLP170=
SPECI CYDL 042127Z AUTO VRB03KT 1 1/2SM -SN OVC017 M08/M09 A2991 RMK
VIS VRB 5/8-2 1/2 SLP169=
SPECI CYDL 042107Z AUTO 23005KT 2SM -SN BKN019 OVC029 M08/M09 A2990
RMK VIS VRB 1-3 SLP166=
METAR CYDL 042100Z AUTO 23002KT 2SM -SN BKN017 OVC029 M08/M09 A2990
RMK VIS VRB 1 1/2-3 SLP165=
SPECI CYDL 042050Z AUTO 23004KT 2 1/2SM -SN BKN019 OVC027 M08/M08
A2989 RMK SLP164=
SPECI CYDL 042049Z AUTO 23003KT 2 1/2SM -SN SCT019 OVC027 M08/M08
A2989 RMK SLP164=
SPECI CYDL 042047Z AUTO 23004KT 2 1/2SM -SN BKN021 OVC027 M08/M08
A2989 RMK SLP164=
SPECI CYDL 042046Z AUTO 22004KT 2 1/2SM -SN SCT019 OVC027 M08/M08
A2989 RMK SLP164=
SPECI CYDL 042045Z AUTO 22003KT 2 1/2SM -SN FEW019 BKN024 OVC029
M08/M08 A2989 RMK SLP164=
SPECI CYDL 042044Z AUTO 22004KT 2 1/4SM -SN FEW019 OVC026 M08/M08
A2989 RMK SLP164=
SPECI CYDL 042043Z AUTO 22004KT 2 1/4SM -SN FEW019 BKN024 OVC029
M08/M08 A2989 RMK VIS VRB 1 3/4-2 1/2 SLP164=
SPECI CYDL 042033Z AUTO 21003KT 1SM -SN FEW017 OVC025 M07/M08 A2988
RMK VIS VRB 3/4-2 1/4 SLP161=
SPECI CYDL 042025Z AUTO 22003KT 1 1/4SM -SN OVC024 M07/M08 A2988 RMK
SLP160=
SPECI CYDL 042012Z AUTO 22005KT 2 1/2SM -SN OVC028 M07/M08 A2987 RMK
VIS VRB 1 3/4-3 SLP157=
SPECI CYDL 042001Z AUTO 22004KT 5SM -SN OVC032 M07/M08 A2987 RMK
SLP156=
METAR CYDL 042000Z AUTO 22004KT 6SM -SN OVC032 M07/M08 A2987 RMK
SLP155=

TAF AMD CYDL 042028Z 0420/0503 22005KT 6SM -SN OVC040 TEMPO 0420/0422
2SM -SN BR OVC020
FM042200 22005KT P6SM OVC040 TEMPO 0422/0503 5SM -SN
RMK FCST BASED ON AUTO OBS. NXT FCST BY 050000Z=
Your time UTC time
Weather data provided by Environment Canada and NAV CANADA